Time;durP1;ratioP1;P1;durP2;ratioP2;P2;SDS_P1;SDS_P2;PMS_P1;PMS_P2;Temp;Humidity;BMP_temperature;BMP_pressure;BME280_temperature;BME280_humidity;BME280_pressure;Samples;Min_cycle;Max_cycle;Signal;HPM_P1;HPM_P2
2022/09/03 00:01:33;;;;;;;;;;;;;;;22.70;52.64;101268.27;2306916;75;51543;-74
2022/09/03 00:04:53;;;;;;;;;;;;;;;22.69;52.59;101272.01;2306926;77;51554;-73
2022/09/03 00:08:11;;;;;;;;;;;;;;;22.68;52.62;101266.27;2262873;77;50775;-73
2022/09/03 00:11:20;;;;;;;;;;;;;;;22.69;52.58;101265.27;2271805;76;52559;-73
2022/09/03 00:14:30;;;;;;;;;;;;;;;22.69;52.69;101266.61;2295635;76;51522;-74
2022/09/03 00:17:33;;;;;;;;;;;;;;;22.69;52.61;101267.96;2292352;77;50446;-74
2022/09/03 00:20:42;;;;;;;;;;;;;;;22.69;52.60;101262.56;2292129;76;50438;-74
2022/09/03 00:23:44;;;;;;;;;;;;;;;22.68;52.52;101264.92;2259556;77;52734;-74
2022/09/03 00:26:50;;;;;;;;;;;;;;;22.68;52.60;101260.05;2292557;77;51467;-74
2022/09/03 00:29:54;;;;;;;;;;;;;;;22.68;52.34;101256.83;2294504;76;51537;-73
2022/09/03 00:33:05;;;;;;;;;;;;;;;22.65;52.52;101257.75;2300857;76;51407;-73
2022/09/03 00:36:08;;;;;;;;;;;;;;;22.64;52.44;101260.97;2300826;76;22340;-74
2022/09/03 00:39:10;;;;;;;;;;;;;;;22.64;52.45;101263.66;2296176;75;50631;-74
2022/09/03 00:42:19;;;;;;;;;;;;;;;22.65;52.48;101263.14;2292707;77;50266;-74
2022/09/03 00:45:25;;;;;;;;;;;;;;;22.63;52.42;101259.28;2292786;77;51672;-75
2022/09/03 00:48:31;;;;;;;;;;;;;;;22.64;52.45;101256.92;2259374;76;52589;-74
2022/09/03 00:51:34;;;;;;;;;;;;;;;22.64;52.38;101263.66;2292747;76;50395;-75
2022/09/03 00:54:53;;;;;;;;;;;;;;;22.63;52.40;101265.20;2294199;76;51549;-74
2022/09/03 00:57:59;;;;;;;;;;;;;;;22.63;52.40;101253.89;2295225;76;51565;-75
2022/09/03 01:01:02;;;;;;;;;;;;;;;22.61;52.53;101248.70;2259724;77;51458;-74
2022/09/03 01:04:09;;;;;;;;;;;;;;;22.61;52.57;101253.27;2292833;77;51541;-75
2022/09/03 01:07:14;;;;;;;;;;;;;;;22.60;52.37;101244.84;2292478;77;50420;-75
2022/09/03 01:10:18;;;;;;;;;;;;;;;22.62;52.31;101253.58;2292370;76;52670;-75
2022/09/03 01:13:23;;;;;;;;;;;;;;;22.63;52.34;101251.19;2259413;77;52717;-76
2022/09/03 01:16:30;;;;;;;;;;;;;;;22.63;52.24;101247.14;2295097;76;51405;-75
2022/09/03 01:19:50;;;;;;;;;;;;;;;22.61;52.21;101246.53;2286520;76;51548;-75
2022/09/03 01:22:57;;;;;;;;;;;;;;;22.61;52.27;101245.18;2300889;76;51524;-75
2022/09/03 01:26:15;;;;;;;;;;;;;;;22.61;52.30;101245.18;2267159;77;51317;-75
2022/09/03 01:29:36;;;;;;;;;;;;;;;22.60;52.22;101245.67;2300671;76;50814;-75
2022/09/03 01:32:48;;;;;;;;;;;;;;;22.61;52.27;101241.14;2299004;77;51472;-75
2022/09/03 01:35:55;;;;;;;;;;;;;;;22.59;52.26;101239.14;2271774;77;50507;-75
2022/09/03 01:39:08;;;;;;;;;;;;;;;22.59;52.37;101239.14;2259277;76;50105;-74
2022/09/03 01:42:17;;;;;;;;;;;;;;;22.56;52.38;101243.06;2298960;77;51552;-75
2022/09/03 01:45:20;;;;;;;;;;;;;;;22.57;52.17;101242.02;2298984;77;50698;-74
2022/09/03 01:48:32;;;;;;;;;;;;;;;22.55;52.29;101232.45;2297775;76;50263;-75
2022/09/03 01:51:34;;;;;;;;;;;;;;;22.56;52.37;101234.14;2243053;77;51685;-74
2022/09/03 01:54:49;;;;;;;;;;;;;;;22.55;52.30;101231.94;2295228;77;50595;-74
2022/09/03 01:57:57;;;;;;;;;;;;;;;22.54;52.46;101238.38;2292718;77;22394;-74
2022/09/03 02:01:03;;;;;;;;;;;;;;;22.56;52.34;101236.31;2292615;76;51605;-75
2022/09/03 02:04:07;;;;;;;;;;;;;;;22.54;52.32;101235.67;2295316;76;51549;-74
2022/09/03 02:07:08;;;;;;;;;;;;;;;22.53;52.21;101234.51;2291707;77;51516;-75
2022/09/03 02:10:14;;;;;;;;;;;;;;;22.54;52.22;101239.72;2292227;76;50080;-75
2022/09/03 02:13:17;;;;;;;;;;;;;;;22.53;52.21;101242.11;2292600;77;50457;-74
2022/09/03 02:16:20;;;;;;;;;;;;;;;22.54;52.17;101243.77;2292168;76;51352;-74
2022/09/03 02:19:23;;;;;;;;;;;;;;;22.53;52.25;101244.80;2292624;76;51506;-74
2022/09/03 02:22:24;;;;;;;;;;;;;;;22.53;52.26;101241.25;2292561;77;50661;-74
2022/09/03 02:25:28;;;;;;;;;;;;;;;22.54;52.19;101238.89;2297118;76;50685;-74
2022/09/03 02:28:29;;;;;;;;;;;;;;;22.52;51.98;101242.30;2291985;76;51285;-74
2022/09/03 02:31:31;;;;;;;;;;;;;;;22.54;52.12;101242.42;2299228;76;50230;-74
2022/09/03 02:34:33;;;;;;;;;;;;;;;22.53;52.00;101245.30;2319286;76;51514;-74
2022/09/03 02:37:34;;;;;;;;;;;;;;;22.51;52.02;101239.28;2318946;76;50225;-74
2022/09/03 02:40:36;;;;;;;;;;;;;;;22.53;52.13;101240.77;2346399;74;49556;-75
2022/09/03 02:43:56;;;;;;;;;;;;;;;22.52;52.04;101242.30;2319140;75;50473;-74
2022/09/03 02:46:58;;;;;;;;;;;;;;;22.51;52.07;101241.98;2300725;76;50775;-74
2022/09/03 02:50:00;;;;;;;;;;;;;;;22.50;52.04;101241.64;2300901;76;50350;-75
2022/09/03 02:53:01;;;;;;;;;;;;;;;22.51;52.15;101239.28;2346369;74;49549;-75
2022/09/03 02:56:03;;;;;;;;;;;;;;;22.48;51.92;101246.39;2296305;76;50376;-74
2022/09/03 02:59:05;;;;;;;;;;;;;;;22.50;52.00;101246.52;2292754;76;50687;-74
2022/09/03 03:02:07;;;;;;;;;;;;;;;22.50;52.11;101241.64;2292491;77;49844;-74
2022/09/03 03:05:09;;;;;;;;;;;;;;;22.48;51.93;101239.66;2297589;77;52486;-74
2022/09/03 03:08:13;;;;;;;;;;;;;;;22.48;52.00;101236.95;2292554;77;50378;-74
2022/09/03 03:11:17;;;;;;;;;;;;;;;22.49;52.09;101242.69;2293016;76;23028;-74
2022/09/03 03:14:17;;;;;;;;;;;;;;;22.48;51.93;101243.70;2292825;77;22370;-74
2022/09/03 03:17:19;;;;;;;;;;;;;;;22.48;51.91;101238.30;2297416;77;52554;-74
2022/09/03 03:20:21;;;;;;;;;;;;;;;22.48;51.95;101245.91;2292482;76;50380;-74
2022/09/03 03:23:22;;;;;;;;;;;;;;;22.46;51.90;101241.21;2293989;77;52128;-75
2022/09/03 03:26:24;;;;;;;;;;;;;;;22.47;51.90;101242.87;2295198;77;50351;-75
2022/09/03 03:29:26;;;;;;;;;;;;;;;22.48;51.86;101239.66;2261268;76;50032;-74
2022/09/03 03:32:27;;;;;;;;;;;;;;;22.46;52.00;101239.86;2266019;76;50421;-74
2022/09/03 03:35:29;;;;;;;;;;;;;;;22.45;51.88;101245.44;2295119;77;50061;-74
2022/09/03 03:38:30;;;;;;;;;;;;;;;22.44;51.86;101248.66;2292178;76;50689;-75
2022/09/03 03:41:33;;;;;;;;;;;;;;;22.44;51.82;101247.83;2297575;76;50035;-75
2022/09/03 03:44:34;;;;;;;;;;;;;;;22.45;51.79;101245.44;2292566;77;49952;-75
2022/09/03 03:47:36;;;;;;;;;;;;;;;22.44;51.81;101247.83;2292232;77;50088;-75
2022/09/03 03:50:38;;;;;;;;;;;;;;;22.44;51.84;101255.92;2292784;76;50351;-75
2022/09/03 03:53:39;;;;;;;;;;;;;;;22.42;52.00;101266.06;2261675;76;49589;-74
2022/09/03 03:56:41;;;;;;;;;;;;;;;22.43;51.90;101259.63;2292344;76;50685;-75
2022/09/03 03:59:42;;;;;;;;;;;;;;;22.42;51.96;101257.97;2312607;75;50602;-74
2022/09/03 04:02:44;;;;;;;;;;;;;;;22.42;51.81;101261.48;2300184;76;51428;-75
2022/09/03 04:05:59;;;;;;;;;;;;;;;22.43;51.70;101255.58;2262242;77;50052;-75
2022/09/03 04:09:01;;;;;;;;;;;;;;;22.41;51.74;101255.79;2296105;76;50301;-75
2022/09/03 04:12:04;;;;;;;;;;;;;;;22.41;51.59;101260.36;2300884;76;50235;-75
2022/09/03 04:15:06;;;;;;;;;;;;;;;22.41;51.58;101251.75;2317400;76;50280;-75
2022/09/03 04:18:07;;;;;;;;;;;;;;;22.41;51.48;101251.75;2293046;76;49920;-75
2022/09/03 04:21:10;;;;;;;;;;;;;;;22.39;51.54;101250.58;2302201;76;50665;-75
2022/09/03 04:24:11;;;;;;;;;;;;;;;22.38;51.68;101246.75;2300827;76;50636;-75
2022/09/03 04:27:13;;;;;;;;;;;;;;;22.36;51.38;101242.05;2300638;76;50364;-75
2022/09/03 04:30:15;;;;;;;;;;;;;;;22.38;51.59;101244.05;2302874;75;49999;-75
2022/09/03 04:33:16;;;;;;;;;;;;;;;22.38;51.73;101239.48;2275559;78;51536;-75
2022/09/03 04:36:19;;;;;;;;;;;;;;;22.36;51.72;101239.36;2257798;78;51482;-76
2022/09/03 04:39:21;;;;;;;;;;;;;;;22.36;51.65;101248.27;2257863;79;51578;-75
2022/09/03 04:42:22;;;;;;;;;;;;;;;22.35;51.48;101247.97;2250467;78;51290;-75
2022/09/03 04:45:24;;;;;;;;;;;;;;;22.36;51.57;101252.32;2275492;78;50297;-77
2022/09/03 04:48:30;;;;;;;;;;;;;;;22.36;51.68;101248.27;2266237;77;50710;-77
2022/09/03 04:51:30;;;;;;;;;;;;;;;22.36;51.68;101244.23;2286345;77;22259;-76
2022/09/03 04:54:31;;;;;;;;;;;;;;;22.36;51.61;101240.19;2264704;77;50794;-77
2022/09/03 04:57:36;;;;;;;;;;;;;;;22.34;51.48;101242.23;2287220;77;51489;-76
2022/09/03 05:00:37;;;;;;;;;;;;;;;22.33;51.53;101244.63;2292723;76;22753;-77
2022/09/03 05:03:38;;;;;;;;;;;;;;;22.35;51.61;101253.85;2292614;77;51469;-77
2022/09/03 05:06:42;;;;;;;;;;;;;;;22.34;51.50;101254.37;2266747;77;50838;-77
2022/09/03 05:09:43;;;;;;;;;;;;;;;22.36;51.40;101251.49;2292795;76;22410;-77
2022/09/03 05:12:45;;;;;;;;;;;;;;;22.35;51.39;101256.05;2293178;77;50594;-76
2022/09/03 05:15:46;;;;;;;;;;;;;;;22.34;51.29;101254.89;2300829;77;50584;-77
2022/09/03 05:18:48;;;;;;;;;;;;;;;22.32;51.27;101252.89;2318210;75;50988;-76
2022/09/03 05:21:50;;;;;;;;;;;;;;;22.32;51.37;101255.07;2327125;75;50430;-76
2022/09/03 05:24:52;;;;;;;;;;;;;;;22.33;51.35;101254.06;2298064;76;51467;-77
2022/09/03 05:27:53;;;;;;;;;;;;;;;22.32;51.44;101254.24;2286322;77;51464;-77
2022/09/03 05:31:00;;;;;;;;;;;;;;;22.35;51.19;101257.89;2259752;77;51388;-77
2022/09/03 05:34:02;;;;;;;;;;;;;;;22.35;51.20;101256.05;2292390;77;52264;-77
2022/09/03 05:37:03;;;;;;;;;;;;;;;22.38;51.55;101265.62;2292209;77;51902;-77
2022/09/03 05:40:05;;;;;;;;;;;;;;;22.41;51.67;101263.05;2295711;76;51445;-77
2022/09/03 05:43:07;;;;;;;;;;;;;;;22.40;52.05;101260.84;2293036;76;51315;-75
2022/09/03 05:46:17;;;;;;;;;;;;;;;22.43;52.66;101263.67;2319006;75;50279;-75
2022/09/03 05:49:18;;;;;;;;;;;;;;;22.44;52.72;101264.00;2301265;76;22313;-74
2022/09/03 05:52:22;;;;;;;;;;;;;;;22.46;52.45;101262.78;2319667;75;51483;-75
2022/09/03 05:55:22;;;;;;;;;;;;;;;22.49;52.30;101268.30;2295098;76;21708;-76
2022/09/03 05:58:25;;;;;;;;;;;;;;;22.47;52.18;101261.74;2285160;77;50287;-77
2022/09/03 06:01:27;;;;;;;;;;;;;;;22.47;52.40;101267.66;2296173;77;50729;-74
2022/09/03 06:04:29;;;;;;;;;;;;;;;22.45;52.24;101269.19;2297041;77;50244;-75
2022/09/03 06:07:32;;;;;;;;;;;;;;;22.45;52.07;101262.97;2267491;77;49551;-75
2022/09/03 06:10:34;;;;;;;;;;;;;;;22.45;52.06;101264.31;2327004;76;51447;-76
2022/09/03 06:13:36;;;;;;;;;;;;;;;22.43;52.01;101258.27;2301122;77;51472;-77
2022/09/03 06:16:38;;;;;;;;;;;;;;;22.46;52.04;101268.70;2300902;77;51490;-76
2022/09/03 06:19:40;;;;;;;;;;;;;;;22.46;51.73;101266.00;2327040;76;50734;-77
2022/09/03 06:22:42;;;;;;;;;;;;;;;22.45;51.46;101263.80;2327338;76;50718;-76
2022/09/03 06:25:43;;;;;;;;;;;;;;;22.45;51.26;101268.36;2319607;76;50379;-77
2022/09/03 06:28:46;;;;;;;;;;;;;;;22.45;51.20;101268.36;2292838;76;50649;-76
2022/09/03 06:31:49;;;;;;;;;;;;;;;22.46;51.68;101261.95;2285023;77;50949;-77
2022/09/03 06:34:51;;;;;;;;;;;;;;;22.44;51.77;101264.00;2294286;77;50630;-76
2022/09/03 06:37:52;;;;;;;;;;;;;;;22.43;51.67;101266.36;2327022;76;51460;-77
2022/09/03 06:40:55;;;;;;;;;;;;;;;22.41;52.06;101273.32;2327329;76;50323;-77
2022/09/03 06:44:10;;;;;;;;;;;;;;;22.39;52.19;101265.41;2267870;77;50847;-77
2022/09/03 06:47:00;;;;;;;;;;;;;;;22.41;52.31;101267.09;2324677;76;22117;-77
2022/09/03 06:50:02;;;;;;;;;;;;;;;22.40;52.28;101272.98;2327414;75;50300;-78
2022/09/03 06:53:03;;;;;;;;;;;;;;;22.43;52.22;101280.70;2299833;77;50197;-77
2022/09/03 06:56:09;;;;;;;;;;;;;;;22.44;52.38;101278.84;2296546;76;49944;-75
2022/09/03 06:59:11;;;;;;;;;;;;;;;22.41;52.27;101269.80;2298051;76;50761;-74
2022/09/03 07:02:13;;;;;;;;;;;;;;;22.42;52.82;101264.70;2298975;77;50432;-75
2022/09/03 07:05:14;;;;;;;;;;;;;;;22.41;52.69;101269.27;2299050;77;50221;-76
2022/09/03 07:08:16;;;;;;;;;;;;;;;22.41;52.53;101269.80;2240700;77;51174;-75
2022/09/03 07:11:19;;;;;;;;;;;;;;;22.39;52.55;101270.80;2265844;77;50746;-75
2022/09/03 07:14:21;;;;;;;;;;;;;;;22.41;52.48;101264.41;2266253;77;51521;-75
2022/09/03 07:17:22;;;;;;;;;;;;;;;22.41;52.49;101265.75;2300029;77;50310;-74
2022/09/03 07:20:24;;;;;;;;;;;;;;;22.39;52.49;101265.41;2267658;77;50945;-77
2022/09/03 07:23:25;;;;;;;;;;;;;;;22.38;52.59;101266.97;2300833;76;50193;-75
2022/09/03 07:26:29;;;;;;;;;;;;;;;22.38;52.62;101262.41;2295092;76;51524;-75
2022/09/03 07:29:30;;;;;;;;;;;;;;;22.39;52.61;101275.37;2292790;76;51530;-77
2022/09/03 07:32:33;;;;;;;;;;;;;;;22.39;52.58;101273.50;2259661;77;50021;-76
2022/09/03 07:35:35;;;;;;;;;;;;;;;22.38;52.46;101273.19;2292533;77;50248;-76
2022/09/03 07:38:37;;;;;;;;;;;;;;;22.39;52.36;101280.77;2292663;76;51548;-75
2022/09/03 07:41:42;;;;;;;;;;;;;;;22.39;52.37;101278.89;2292514;76;51486;-75
2022/09/03 07:44:42;;;;;;;;;;;;;;;22.37;52.52;101276.89;2292522;77;22804;-74
2022/09/03 07:47:48;;;;;;;;;;;;;;;22.37;52.89;101278.24;2292657;77;50302;-74
2022/09/03 07:50:50;;;;;;;;;;;;;;;22.36;52.78;101285.20;2292451;76;50439;-74
2022/09/03 07:53:52;;;;;;;;;;;;;;;22.34;52.88;101286.72;2293980;77;51493;-75
2022/09/03 07:56:54;;;;;;;;;;;;;;;22.35;52.86;101283.02;2269353;77;50991;-75
2022/09/03 07:59:55;;;;;;;;;;;;;;;22.34;52.91;101286.72;2300807;76;50848;-75
2022/09/03 08:03:02;;;;;;;;;;;;;;;22.35;52.88;101285.72;2300894;77;49959;-75
2022/09/03 08:06:02;;;;;;;;;;;;;;;22.36;52.98;101283.33;2318922;76;22348;-77
2022/09/03 08:09:04;;;;;;;;;;;;;;;22.35;53.12;101281.67;2319215;76;50979;-75
2022/09/03 08:12:06;;;;;;;;;;;;;;;22.36;52.82;101284.67;2319149;76;50682;-74
2022/09/03 08:15:07;;;;;;;;;;;;;;;22.38;53.04;101285.84;2319173;76;50046;-75
2022/09/03 08:18:09;;;;;;;;;;;;;;;22.37;53.16;101280.11;2300756;77;50261;-76
2022/09/03 08:21:16;;;;;;;;;;;;;;;22.35;53.51;101280.81;2319255;75;49510;-75
2022/09/03 08:24:15;;;;;;;;;;;;;;;22.35;53.25;101285.72;2297694;76;22285;-75
2022/09/03 08:27:24;;;;;;;;;;;;;;;22.37;53.20;101282.29;2297701;76;51552;-75
2022/09/03 08:30:20;;;;;;;;;;;;;;;22.35;53.31;101274.93;2299431;77;23016;-75
2022/09/03 08:33:35;;;;;;;;;;;;;;;22.37;53.41;101279.59;2267698;77;49394;-75
2022/09/03 08:36:26;;;;;;;;;;;;;;;22.41;53.31;101279.23;2290875;77;23089;-75
2022/09/03 08:39:30;;;;;;;;;;;;;;;22.44;53.20;101285.58;2300871;76;51502;-76
2022/09/03 08:42:36;;;;;;;;;;;;;;;22.42;53.02;101270.10;2300883;77;50623;-75
2022/09/03 08:45:38;;;;;;;;;;;;;;;22.42;52.92;101263.36;2267311;77;50037;-75
2022/09/03 08:48:39;;;;;;;;;;;;;;;22.42;52.78;101262.84;2300657;77;51517;-75
2022/09/03 08:51:41;;;;;;;;;;;;;;;22.42;52.69;101266.88;2300967;76;51418;-76
2022/09/03 08:54:43;;;;;;;;;;;;;;;22.43;52.61;101271.76;2298140;77;50647;-76
2022/09/03 08:57:52;;;;;;;;;;;;;;;22.41;52.51;101261.19;2261199;77;52560;-76
2022/09/03 09:01:03;;;;;;;;;;;;;;;22.43;52.51;101265.02;2292647;76;52368;-75
2022/09/03 09:04:20;;;;;;;;;;;;;;;22.41;52.44;101259.01;2291841;77;22362;-74
2022/09/03 09:07:31;;;;;;;;;;;;;;;22.40;52.40;101256.80;2292431;77;50439;-75
2022/09/03 09:10:44;;;;;;;;;;;;;;;22.39;52.34;101257.32;2259540;77;49696;-77
2022/09/03 09:13:48;;;;;;;;;;;;;;;22.39;52.32;101261.36;2292606;77;50700;-75
2022/09/03 09:16:51;;;;;;;;;;;;;;;22.36;52.34;101260.41;2292252;77;51598;-75
2022/09/03 09:20:11;;;;;;;;;;;;;;;22.35;52.34;101249.80;2292608;76;51622;-75
2022/09/03 09:23:29;;;;;;;;;;;;;;;22.36;52.32;101247.45;2292934;77;50230;-76
2022/09/03 09:26:31;;;;;;;;;;;;;;;22.35;52.24;101245.27;2286199;77;51515;-74
2022/09/03 09:29:35;;;;;;;;;;;;;;;22.34;52.42;101241.41;2300760;77;50810;-74
2022/09/03 09:32:37;;;;;;;;;;;;;;;22.34;52.31;101240.89;2300715;76;50677;-77
2022/09/03 09:35:41;;;;;;;;;;;;;;;22.33;52.17;101241.10;2300716;77;50146;-75
2022/09/03 09:38:42;;;;;;;;;;;;;;;22.33;52.27;101235.19;2300688;77;22370;-75
2022/09/03 09:41:43;;;;;;;;;;;;;;;22.33;52.10;101229.80;2294357;77;50425;-75
2022/09/03 09:44:45;;;;;;;;;;;;;;;22.32;52.10;101231.33;2301007;76;50298;-76
2022/09/03 09:47:49;;;;;;;;;;;;;;;22.31;52.01;101226.45;2300739;76;50353;-74
2022/09/03 09:50:50;;;;;;;;;;;;;;;22.31;52.10;101225.11;2301098;76;22317;-76
2022/09/03 09:54:01;;;;;;;;;;;;;;;22.31;52.08;101222.41;2292056;77;51532;-74
2022/09/03 09:57:05;;;;;;;;;;;;;;;22.32;52.10;101224.06;2285326;76;51516;-75
2022/09/03 10:00:10;;;;;;;;;;;;;;;22.33;52.03;101228.97;2293656;76;51613;-77
2022/09/03 10:03:12;;;;;;;;;;;;;;;22.32;51.98;101221.37;2297635;77;51468;-76
2022/09/03 10:09:33;;;;;;;;;;;;;;;22.32;51.99;101217.84;2293125;76;22482;-75
2022/09/03 10:12:58;;;;;;;;;;;;;;;22.31;52.06;101218.89;2292405;77;53415;-75
2022/09/03 10:16:00;;;;;;;;;;;;;;;22.30;52.14;101212.66;2292691;77;23327;-76
2022/09/03 10:19:03;;;;;;;;;;;;;;;22.32;52.09;101212.45;2292827;76;52170;-76
2022/09/03 10:22:09;;;;;;;;;;;;;;;22.30;52.17;101210.46;2292731;77;51593;-75
2022/09/03 10:25:11;;;;;;;;;;;;;;;22.29;52.21;101206.94;2294427;77;51614;-75
2022/09/03 10:28:13;;;;;;;;;;;;;;;22.29;52.24;101209.63;2295919;77;50775;-75
2022/09/03 10:31:25;;;;;;;;;;;;;;;22.28;52.26;101199.89;2292825;76;51476;-75
2022/09/03 10:34:33;;;;;;;;;;;;;;;22.29;52.18;101201.55;2292722;77;50486;-75
2022/09/03 10:37:53;;;;;;;;;;;;;;;22.30;52.22;101197.84;2292878;77;22271;-75
2022/09/03 10:41:08;;;;;;;;;;;;;;;22.30;52.10;101203.23;2259699;77;49633;-75
2022/09/03 10:44:17;;;;;;;;;;;;;;;22.28;52.05;101186.41;2292708;77;50474;-74
2022/09/03 10:47:28;;;;;;;;;;;;;;;22.30;51.88;101190.23;2292553;77;51491;-74
2022/09/03 10:50:31;;;;;;;;;;;;;;;22.30;52.14;101194.28;2293137;76;50435;-73
2022/09/03 10:53:51;;;;;;;;;;;;;;;22.29;52.09;101193.45;2295193;77;50235;-75
2022/09/03 10:57:11;;;;;;;;;;;;;;;22.29;51.91;101193.45;2297883;76;50776;-74
2022/09/03 11:00:13;;;;;;;;;;;;;;;22.30;51.33;101182.15;2293469;76;51519;-74
2022/09/03 11:03:19;;;;;;;;;;;;;;;22.30;52.12;101178.11;2292779;77;51461;-75
2022/09/03 11:06:23;;;;;;;;;;;;;;;22.28;52.25;101170.75;2292368;76;51164;-75
2022/09/03 11:09:32;;;;;;;;;;;;;;;22.30;51.98;101172.23;2292732;76;51622;-76
2022/09/03 11:12:35;;;;;;;;;;;;;;;22.31;52.16;101162.27;2292806;77;50244;-75
2022/09/03 11:15:41;;;;;;;;;;;;;;;22.33;52.14;101165.61;2292819;77;50430;-76
2022/09/03 11:18:44;;;;;;;;;;;;;;;22.32;52.03;101170.14;2292175;76;50671;-77
2022/09/03 11:21:45;;;;;;;;;;;;;;;22.33;52.14;101166.95;2297976;76;51575;-79
2022/09/03 11:24:49;;;;;;;;;;;;;;;22.34;52.30;101165.39;2300891;76;50320;-78
2022/09/03 11:27:55;;;;;;;;;;;;;;;22.34;52.04;101154.61;2300206;76;50459;-77
2022/09/03 11:31:13;;;;;;;;;;;;;;;22.34;51.97;101153.27;2266400;77;51121;-79
2022/09/03 11:34:17;;;;;;;;;;;;;;;22.35;51.89;101152.25;2298891;77;50383;-76
2022/09/03 11:37:20;;;;;;;;;;;;;;;22.34;51.88;101151.91;2296880;77;50480;-77
2022/09/03 11:40:25;;;;;;;;;;;;;;;22.33;51.45;101149.44;2300160;76;50492;-75
2022/09/03 11:43:27;;;;;;;;;;;;;;;22.33;51.43;101140.83;2286015;77;23010;-77
2022/09/03 11:46:29;;;;;;;;;;;;;;;22.33;51.60;101137.30;2300601;76;51536;-78
2022/09/03 11:49:36;;;;;;;;;;;;;;;22.31;51.05;101136.14;2293329;76;50630;-77
2022/09/03 11:52:39;;;;;;;;;;;;;;;22.28;50.97;101141.92;2300435;77;22266;-77
2022/09/03 11:55:45;;;;;;;;;;;;;;;22.30;51.24;101141.71;2295711;77;22777;-77
2022/09/03 11:58:47;;;;;;;;;;;;;;;22.31;51.37;101138.83;2243159;76;50248;-75
2022/09/03 12:02:00;;;;;;;;;;;;;;;22.34;50.92;101137.61;2261994;77;51488;-77
2022/09/03 12:05:06;;;;;;;;;;;;;;;22.34;50.97;101137.09;2301872;77;51543;-78
2022/09/03 12:08:27;;;;;;;;;;;;;;;22.41;48.98;101128.23;2266495;77;51915;-78
2022/09/03 12:11:42;;;;;;;;;;;;;;;22.41;49.22;101118.80;2298112;76;50689;-79
2022/09/03 12:14:45;;;;;;;;;;;;;;;22.46;49.68;101117.69;2299587;77;50847;-78
2022/09/03 12:18:19;;;;;;;;;;;;;;;22.48;50.08;101114.25;2296578;77;51485;-79
2022/09/03 12:21:21;;;;;;;;;;;;;;;22.43;50.04;101110.83;2262338;77;51333;-79
2022/09/03 12:24:22;;;;;;;;;;;;;;;22.42;50.40;101117.23;2289984;76;51062;-79
2022/09/03 12:27:24;;;;;;;;;;;;;;;22.42;50.69;101112.36;2293168;77;50966;-79
2022/09/03 12:30:29;;;;;;;;;;;;;;;22.46;51.08;101116.34;2294032;76;51798;-78
2022/09/03 12:33:29;;;;;;;;;;;;;;;22.46;51.35;101108.25;2294513;77;22970;-78
2022/09/03 12:36:38;;;;;;;;;;;;;;;22.49;51.33;101105.16;2261049;77;50078;-78
2022/09/03 12:39:39;;;;;;;;;;;;;;;22.43;51.61;101105.92;2297637;76;50857;-77
2022/09/03 12:42:41;;;;;;;;;;;;;;;22.49;50.95;101114.59;2306368;75;51371;-77
2022/09/03 12:45:44;;;;;;;;;;;;;;;22.47;51.03;101102.64;2255747;77;51160;-76
2022/09/03 12:49:06;;;;;;;;;;;;;;;22.48;51.13;101100.77;2281521;76;49977;-78
2022/09/03 12:52:18;;;;;;;;;;;;;;;22.51;51.38;101088.27;2263485;78;51558;-78
2022/09/03 12:55:27;;;;;;;;;;;;;;;22.53;51.55;101088.38;2272799;76;51603;-77
2022/09/03 12:58:34;;;;;;;;;;;;;;;22.53;51.25;101084.83;2301549;76;49664;-79
2022/09/03 13:01:37;;;;;;;;;;;;;;;22.54;46.13;101089.21;2301227;76;51568;-76
2022/09/03 13:04:39;;;;;;;;;;;;;;;22.46;45.06;101086.16;2299952;76;51725;-76
2022/09/03 13:07:42;;;;;;;;;;;;;;;22.45;46.21;101078.25;2296116;77;51538;-75
2022/09/03 13:10:44;;;;;;;;;;;;;;;22.44;46.83;101084.69;2262704;77;52622;-76
2022/09/03 13:13:57;;;;;;;;;;;;;;;22.45;47.74;101082.30;2296344;77;50766;-77
2022/09/03 13:17:03;;;;;;;;;;;;;;;22.42;47.74;101070.56;2241656;77;51637;-75
2022/09/03 13:20:21;;;;;;;;;;;;;;;22.38;48.01;101072.84;2296377;76;51617;-76
2022/09/03 13:23:31;;;;;;;;;;;;;;;22.37;48.16;101071.16;2263447;77;49640;-77
2022/09/03 13:26:37;;;;;;;;;;;;;;;22.37;48.29;101076.02;2296351;77;51499;-77
2022/09/03 13:29:40;;;;;;;;;;;;;;;22.35;48.77;101084.84;2301135;77;50755;-77
2022/09/03 13:32:49;;;;;;;;;;;;;;;22.41;48.76;101077.83;2301194;76;51527;-76
2022/09/03 13:35:52;;;;;;;;;;;;;;;22.43;48.97;101077.13;2300757;76;22756;-76
2022/09/03 13:38:55;;;;;;;;;;;;;;;22.42;49.07;101074.61;2301037;77;51489;-76
2022/09/03 13:42:07;;;;;;;;;;;;;;;22.48;49.28;101077.85;2300966;77;51577;-77
2022/09/03 13:45:16;;;;;;;;;;;;;;;22.46;49.58;101079.94;2301140;76;50379;-77
2022/09/03 13:51:49;;;;;;;;;;;;;;;22.43;45.92;101068.17;2297976;77;22217;-78
2022/09/03 13:54:53;;;;;;;;;;;;;;;22.38;45.17;101061.53;2300312;77;50364;-77
2022/09/03 13:57:56;;;;;;;;;;;;;;;22.35;43.16;101060.58;2294757;77;51572;-78
2022/09/03 14:00:59;;;;;;;;;;;;;;;22.33;41.30;101057.25;2307229;76;52555;-78
2022/09/03 14:04:01;;;;;;;;;;;;;;;22.32;41.57;101057.44;2301694;76;51451;-79
2022/09/03 14:07:07;;;;;;;;;;;;;;;22.28;41.80;101052.97;2293689;77;50648;-79
2022/09/03 14:10:26;;;;;;;;;;;;;;;22.29;40.68;101054.62;2301387;77;50678;-78
2022/09/03 14:13:47;;;;;;;;;;;;;;;22.28;40.28;101055.66;2264507;77;51888;-76
2022/09/03 14:16:53;;;;;;;;;;;;;;;22.23;40.81;101058.64;2299143;76;50482;-75
2022/09/03 14:20:12;;;;;;;;;;;;;;;22.19;41.85;101055.48;2301464;77;22362;-80
2022/09/03 14:23:31;;;;;;;;;;;;;;;22.18;42.56;101045.19;2301104;77;50299;-77
2022/09/03 14:26:33;;;;;;;;;;;;;;;22.18;43.02;101051.93;2264620;77;50168;-76
2022/09/03 14:29:35;;;;;;;;;;;;;;;22.18;43.84;101049.75;2288217;76;51434;-76
2022/09/03 14:32:55;;;;;;;;;;;;;;;22.18;44.46;101037.63;2313415;76;50242;-77
2022/09/03 14:36:08;;;;;;;;;;;;;;;22.18;45.44;101032.23;2345778;74;51554;-79
2022/09/03 14:39:23;;;;;;;;;;;;;;;22.20;45.27;101039.65;2316026;74;51886;-80
2022/09/03 14:42:29;;;;;;;;;;;;;;;22.25;45.29;101036.37;2313904;76;50946;-80
2022/09/03 14:45:45;;;;;;;;;;;;;;;22.27;45.08;101032.44;2345901;76;50775;-79
2022/09/03 14:49:03;;;;;;;;;;;;;;;22.29;45.30;101027.66;2345986;74;51931;-80
2022/09/03 14:52:16;;;;;;;;;;;;;;;22.31;44.93;101021.56;2346605;76;50190;-79
2022/09/03 14:55:21;;;;;;;;;;;;;;;22.30;45.04;101035.23;2214860;79;51784;-79
2022/09/03 14:58:39;;;;;;;;;;;;;;;22.28;44.69;101028.70;2169585;80;50680;-78
2022/09/03 15:01:41;;;;;;;;;;;;;;;22.26;44.69;101028.06;2167199;82;51524;-78
2022/09/03 15:04:47;;;;;;;;;;;;;;;22.24;44.53;101026.08;2167050;81;51652;-79
2022/09/03 15:07:53;;;;;;;;;;;;;;;22.22;44.57;101017.87;2143827;82;52693;-78
2022/09/03 15:10:55;;;;;;;;;;;;;;;22.23;44.55;101024.42;2166226;82;51514;-78
2022/09/03 15:14:01;;;;;;;;;;;;;;;22.24;44.95;101027.94;2167085;82;51478;-79
2022/09/03 15:17:07;;;;;;;;;;;;;;;22.24;44.67;101020.69;2144163;82;50949;-79
2022/09/03 15:20:25;;;;;;;;;;;;;;;22.24;44.78;101022.03;2167273;82;50450;-79
2022/09/03 15:23:40;;;;;;;;;;;;;;;22.24;44.75;101020.69;2166707;82;50804;-76
2022/09/03 15:26:46;;;;;;;;;;;;;;;22.26;44.88;101018.62;2173347;81;50444;-76
2022/09/03 15:30:06;;;;;;;;;;;;;;;22.27;45.36;101021.66;2148777;82;51343;-76
2022/09/03 15:33:16;;;;;;;;;;;;;;;22.25;45.19;101019.67;2281878;77;51573;-76
2022/09/03 15:36:19;;;;;;;;;;;;;;;22.25;45.20;101019.67;2292494;76;51470;-76
2022/09/03 15:39:27;;;;;;;;;;;;;;;22.24;45.14;101027.42;2292482;76;50425;-78
2022/09/03 15:42:29;;;;;;;;;;;;;;;22.24;45.05;101028.77;2259677;77;51018;-78
2022/09/03 15:45:32;;;;;;;;;;;;;;;22.25;45.18;101029.63;2292734;76;51610;-75
2022/09/03 15:48:35;;;;;;;;;;;;;;;22.24;45.19;101029.29;2292262;76;51489;-77
2022/09/03 15:51:38;;;;;;;;;;;;;;;22.26;45.45;101029.41;2292012;77;51478;-75
2022/09/03 15:54:48;;;;;;;;;;;;;;;22.25;45.36;101031.80;2259472;77;49655;-76
2022/09/03 15:57:51;;;;;;;;;;;;;;;22.23;45.14;101027.12;2295081;77;50626;-75